sensor_id;sensor_type;location;lat;lon;timestamp;pressure;altitude;pressure_sealevel;temperature;humidity
65546;BME280;52177;55.968;37.498;2023-10-09T00:00:26;97178.84;;;1.37;87.09
65546;BME280;52177;55.968;37.498;2023-10-09T00:01:20;97183.13;;;1.38;87.21
65546;BME280;52177;55.968;37.498;2023-10-09T00:01:52;97196.69;;;1.42;87.20
65546;BME280;52177;55.968;37.498;2023-10-09T00:02:23;97189.63;;;1.42;87.18
65546;BME280;52177;55.968;37.498;2023-10-09T00:02:54;97185.38;;;1.41;87.22
65546;BME280;52177;55.968;37.498;2023-10-09T00:03:24;97192.25;;;1.42;87.14
65546;BME280;52177;55.968;37.498;2023-10-09T00:03:58;97186.19;;;1.42;87.30
65546;BME280;52177;55.968;37.498;2023-10-09T00:04:31;97188.81;;;1.42;87.22
65546;BME280;52177;55.968;37.498;2023-10-09T00:05:02;97194.88;;;1.42;87.17
65546;BME280;52177;55.968;37.498;2023-10-09T00:05:41;97192.44;;;1.41;87.20
65546;BME280;52177;55.968;37.498;2023-10-09T00:06:15;97192.44;;;1.41;87.41
65546;BME280;52177;55.968;37.498;2023-10-09T00:06:47;97194.44;;;1.39;87.40
65546;BME280;52177;55.968;37.498;2023-10-09T00:07:18;97189.63;;;1.42;87.36
65546;BME280;52177;55.968;37.498;2023-10-09T00:07:50;97204.19;;;1.45;87.31
65546;BME280;52177;55.968;37.498;2023-10-09T00:08:26;97198.75;;;1.46;87.13
65546;BME280;52177;55.968;37.498;2023-10-09T00:09:06;97201.03;;;1.50;87.09
65546;BME280;52177;55.968;37.498;2023-10-09T00:09:55;97200.59;;;1.46;86.98
65546;BME280;52177;55.968;37.498;2023-10-09T00:10:25;97198.13;;;1.44;87.12
65546;BME280;52177;55.968;37.498;2023-10-09T00:11:05;97201.94;;;1.42;87.20
65546;BME280;52177;55.968;37.498;2023-10-09T00:11:48;97201.75;;;1.43;87.20
65546;BME280;52177;55.968;37.498;2023-10-09T00:12:19;97206.19;;;1.43;87.42
65546;BME280;52177;55.968;37.498;2023-10-09T00:12:52;97199.94;;;1.44;87.31
65546;BME280;52177;55.968;37.498;2023-10-09T00:13:24;97197.50;;;1.42;87.21
65546;BME280;52177;55.968;37.498;2023-10-09T00:14:01;97206.75;;;1.38;87.45
65546;BME280;52177;55.968;37.498;2023-10-09T00:14:34;97209.53;;;1.37;87.50
65546;BME280;52177;55.968;37.498;2023-10-09T00:15:09;97214.16;;;1.35;87.67
65546;BME280;52177;55.968;37.498;2023-10-09T00:15:42;97209.06;;;1.33;87.77
65546;BME280;52177;55.968;37.498;2023-10-09T00:16:13;97210.88;;;1.33;87.71
65546;BME280;52177;55.968;37.498;2023-10-09T00:16:44;97209.91;;;1.34;87.87
65546;BME280;52177;55.968;37.498;2023-10-09T00:17:18;97210.50;;;1.36;87.85
65546;BME280;52177;55.968;37.498;2023-10-09T00:17:49;97208.53;;;1.38;87.91
65546;BME280;52177;55.968;37.498;2023-10-09T00:18:21;97212.59;;;1.40;87.88
65546;BME280;52177;55.968;37.498;2023-10-09T00:19:00;97214.88;;;1.43;87.89
65546;BME280;52177;55.968;37.498;2023-10-09T00:19:45;97216.50;;;1.44;87.86
65546;BME280;52177;55.968;37.498;2023-10-09T00:20:20;97220.78;;;1.45;88.01
65546;BME280;52177;55.968;37.498;2023-10-09T00:20:57;97221.59;;;1.46;87.98
65546;BME280;52177;55.968;37.498;2023-10-09T00:21:41;97220.78;;;1.45;87.89
65546;BME280;52177;55.968;37.498;2023-10-09T00:22:12;97222.38;;;1.46;87.75
65546;BME280;52177;55.968;37.498;2023-10-09T00:22:51;97222.13;;;1.41;87.88
65546;BME280;52177;55.968;37.498;2023-10-09T00:23:21;97217.50;;;1.43;87.75
65546;BME280;52177;55.968;37.498;2023-10-09T00:23:55;97219.13;;;1.44;87.74
65546;BME280;52177;55.968;37.498;2023-10-09T00:24:29;97220.31;;;1.42;87.74
65546;BME280;52177;55.968;37.498;2023-10-09T00:25:01;97216.69;;;1.43;87.84
65546;BME280;52177;55.968;37.498;2023-10-09T00:25:51;97229.63;;;1.44;87.79
65546;BME280;52177;55.968;37.498;2023-10-09T00:26:43;97227.19;;;1.43;87.83
65546;BME280;52177;55.968;37.498;2023-10-09T00:27:18;97224.91;;;1.40;88.12
65546;BME280;52177;55.968;37.498;2023-10-09T00:27:49;97234.97;;;1.36;88.28
65546;BME280;52177;55.968;37.498;2023-10-09T00:28:20;97227.75;;;1.38;88.19
65546;BME280;52177;55.968;37.498;2023-10-09T00:28:52;97236.22;;;1.40;88.03
65546;BME280;52177;55.968;37.498;2023-10-09T00:29:22;97237.06;;;1.41;88.21
65546;BME280;52177;55.968;37.498;2023-10-09T00:29:53;97238.69;;;1.42;88.09
65546;BME280;52177;55.968;37.498;2023-10-09T00:30:25;97236.69;;;1.44;88.06
65546;BME280;52177;55.968;37.498;2023-10-09T00:31:00;97244.56;;;1.44;88.07
65546;BME280;52177;55.968;37.498;2023-10-09T00:31:34;97242.59;;;1.46;88.14
65546;BME280;52177;55.968;37.498;2023-10-09T00:32:06;97252.44;;;1.44;88.19
65546;BME280;52177;55.968;37.498;2023-10-09T00:32:55;97240.75;;;1.46;88.14
65546;BME280;52177;55.968;37.498;2023-10-09T00:33:28;97245.22;;;1.46;87.97
65546;BME280;52177;55.968;37.498;2023-10-09T00:33:59;97248.47;;;1.48;87.86
65546;BME280;52177;55.968;37.498;2023-10-09T00:34:32;97247.47;;;1.49;87.96
65546;BME280;52177;55.968;37.498;2023-10-09T00:35:09;97264.66;;;1.52;87.82
65546;BME280;52177;55.968;37.498;2023-10-09T00:36:04;97256.44;;;1.55;87.67
65546;BME280;52177;55.968;37.498;2023-10-09T00:36:42;97254.97;;;1.52;87.51
65546;BME280;52177;55.968;37.498;2023-10-09T00:37:20;97262.69;;;1.54;87.48
65546;BME280;52177;55.968;37.498;2023-10-09T00:37:53;97254.97;;;1.52;87.64
65546;BME280;52177;55.968;37.498;2023-10-09T00:38:30;97255.19;;;1.51;87.58
65546;BME280;52177;55.968;37.498;2023-10-09T00:39:04;97254.97;;;1.52;87.72
65546;BME280;52177;55.968;37.498;2023-10-09T00:39:48;97260.22;;;1.52;87.67
65546;BME280;52177;55.968;37.498;2023-10-09T00:40:30;97263.22;;;1.49;87.93
65546;BME280;52177;55.968;37.498;2023-10-09T00:41:01;97263.22;;;1.49;87.93
65546;BME280;52177;55.968;37.498;2023-10-09T00:41:40;97258.59;;;1.51;87.99
65546;BME280;52177;55.968;37.498;2023-10-09T00:42:12;97261.22;;;1.51;88.03
65546;BME280;52177;55.968;37.498;2023-10-09T00:42:44;97267.13;;;1.53;87.99
65546;BME280;52177;55.968;37.498;2023-10-09T00:43:15;97261.88;;;1.53;88.16
65546;BME280;52177;55.968;37.498;2023-10-09T00:43:46;97266.97;;;1.55;88.06
65546;BME280;52177;55.968;37.498;2023-10-09T00:44:19;97264.34;;;1.55;88.08
65546;BME280;52177;55.968;37.498;2023-10-09T00:44:50;97271.03;;;1.57;87.98
65546;BME280;52177;55.968;37.498;2023-10-09T00:45:20;97271.84;;;1.58;87.92
65546;BME280;52177;55.968;37.498;2023-10-09T00:45:59;97270.50;;;1.62;87.74
65546;BME280;52177;55.968;37.498;2023-10-09T00:46:40;97272.28;;;1.61;87.78
65546;BME280;52177;55.968;37.498;2023-10-09T00:47:14;97267.41;;;1.58;87.77
65546;BME280;52177;55.968;37.498;2023-10-09T00:47:53;97270.03;;;1.58;87.81
65546;BME280;52177;55.968;37.498;2023-10-09T00:48:28;97276.72;;;1.61;87.70
65546;BME280;52177;55.968;37.498;2023-10-09T00:49:08;97272.47;;;1.60;87.83
65546;BME280;52177;55.968;37.498;2023-10-09T00:49:40;97277.72;;;1.60;87.77
65546;BME280;52177;55.968;37.498;2023-10-09T00:50:14;97275.91;;;1.60;87.89
65546;BME280;52177;55.968;37.498;2023-10-09T00:50:47;97270.84;;;1.59;87.78
65546;BME280;52177;55.968;37.498;2023-10-09T00:51:22;97268.41;;;1.57;88.07
65546;BME280;52177;55.968;37.498;2023-10-09T00:51:54;97277.47;;;1.55;88.03
65546;BME280;52177;55.968;37.498;2023-10-09T00:52:32;97280.09;;;1.55;88.18
65546;BME280;52177;55.968;37.498;2023-10-09T00:53:14;97284.50;;;1.54;88.34
65546;BME280;52177;55.968;37.498;2023-10-09T00:54:22;97281.88;;;1.54;88.41
65546;BME280;52177;55.968;37.498;2023-10-09T00:55:07;97282.88;;;1.53;88.41
65546;BME280;52177;55.968;37.498;2023-10-09T00:55:44;97285.34;;;1.55;88.41
65546;BME280;52177;55.968;37.498;2023-10-09T00:56:15;97284.16;;;1.57;88.55
65546;BME280;52177;55.968;37.498;2023-10-09T00:56:49;97292.69;;;1.59;88.35
65546;BME280;52177;55.968;37.498;2023-10-09T00:57:29;97283.97;;;1.59;88.42
65546;BME280;52177;55.968;37.498;2023-10-09T00:58:01;97290.84;;;1.60;88.39
65546;BME280;52177;55.968;37.498;2023-10-09T00:58:36;97287.50;;;1.66;88.40
65546;BME280;52177;55.968;37.498;2023-10-09T00:59:07;97281.63;;;1.64;88.19
65546;BME280;52177;55.968;37.498;2023-10-09T00:59:40;97286.69;;;1.65;88.14
65546;BME280;52177;55.968;37.498;2023-10-09T01:00:13;97294.13;;;1.62;88.12
65546;BME280;52177;55.968;37.498;2023-10-09T01:01:02;97290.66;;;1.61;88.08
65546;BME280;52177;55.968;37.498;2023-10-09T01:01:37;97296.91;;;1.60;88.05
65546;BME280;52177;55.968;37.498;2023-10-09T01:02:15;97292.47;;;1.61;88.08
65546;BME280;52177;55.968;37.498;2023-10-09T01:02:50;97295.09;;;1.61;88.09
65546;BME280;52177;55.968;37.498;2023-10-09T01:03:29;97293.50;;;1.60;88.10
65546;BME280;52177;55.968;37.498;2023-10-09T01:04:03;97294.94;;;1.62;88.25
65546;BME280;52177;55.968;37.498;2023-10-09T01:04:48;97300.19;;;1.62;88.17
65546;BME280;52177;55.968;37.498;2023-10-09T01:05:18;97295.91;;;1.61;88.12
65546;BME280;52177;55.968;37.498;2023-10-09T01:05:51;97293.28;;;1.61;88.16
65546;BME280;52177;55.968;37.498;2023-10-09T01:06:26;97294.13;;;1.62;88.29
65546;BME280;52177;55.968;37.498;2023-10-09T01:07:04;97293.28;;;1.61;88.21
65546;BME280;52177;55.968;37.498;2023-10-09T01:07:56;97298.53;;;1.61;88.34
65546;BME280;52177;55.968;37.498;2023-10-09T01:08:29;97308.72;;;1.64;88.27
65546;BME280;52177;55.968;37.498;2023-10-09T01:09:12;97299.38;;;1.62;88.29
65546;BME280;52177;55.968;37.498;2023-10-09T01:09:44;97305.88;;;1.66;88.25
65546;BME280;52177;55.968;37.498;2023-10-09T01:10:15;97309.50;;;1.65;88.18
65546;BME280;52177;55.968;37.498;2023-10-09T01:10:48;97301.00;;;1.63;88.33
65546;BME280;52177;55.968;37.498;2023-10-09T01:11:39;97295.75;;;1.63;88.41
65546;BME280;52177;55.968;37.498;2023-10-09T01:12:33;97302.28;;;1.67;88.36
65546;BME280;52177;55.968;37.498;2023-10-09T01:13:03;97301.47;;;1.66;88.29
65546;BME280;52177;55.968;37.498;2023-10-09T01:13:34;97297.84;;;1.67;88.27
65546;BME280;52177;55.968;37.498;2023-10-09T01:14:31;97311.25;;;1.73;88.10
65546;BME280;52177;55.968;37.498;2023-10-09T01:15:06;97304.38;;;1.72;87.83
65546;BME280;52177;55.968;37.498;2023-10-09T01:15:37;97309.41;;;1.73;87.81
65546;BME280;52177;55.968;37.498;2023-10-09T01:16:15;97303.72;;;1.69;87.97
65546;BME280;52177;55.968;37.498;2023-10-09T01:16:47;97312.59;;;1.68;88.08
65546;BME280;52177;55.968;37.498;2023-10-09T01:17:18;97303.44;;;1.64;88.03
65546;BME280;52177;55.968;37.498;2023-10-09T01:18:00;97309.50;;;1.65;88.16
65546;BME280;52177;55.968;37.498;2023-10-09T01:18:31;97307.91;;;1.64;88.19
65546;BME280;52177;55.968;37.498;2023-10-09T01:19:06;97311.50;;;1.63;88.30
65546;BME280;52177;55.968;37.498;2023-10-09T01:19:43;97312.94;;;1.65;88.34
65546;BME280;52177;55.968;37.498;2023-10-09T01:20:22;97311.59;;;1.69;88.25
65546;BME280;52177;55.968;37.498;2023-10-09T01:21:00;97312.41;;;1.70;88.08
65546;BME280;52177;55.968;37.498;2023-10-09T01:21:32;97317.03;;;1.68;87.88
65546;BME280;52177;55.968;37.498;2023-10-09T01:22:03;97311.78;;;1.68;87.75
65546;BME280;52177;55.968;37.498;2023-10-09T01:22:52;97316.22;;;1.67;88.02
65546;BME280;52177;55.968;37.498;2023-10-09T01:23:22;97321.47;;;1.67;87.98
65546;BME280;52177;55.968;37.498;2023-10-09T01:23:54;97320.47;;;1.68;87.87
65546;BME280;52177;55.968;37.498;2023-10-09T01:24:33;97325.53;;;1.70;88.02
65546;BME280;52177;55.968;37.498;2023-10-09T01:25:09;97319.13;;;1.73;87.93
65546;BME280;52177;55.968;37.498;2023-10-09T01:25:40;97319.31;;;1.71;87.73
65546;BME280;52177;55.968;37.498;2023-10-09T01:26:15;97320.13;;;1.72;87.75
65546;BME280;52177;55.968;37.498;2023-10-09T01:26:47;97329.81;;;1.71;87.81
65546;BME280;52177;55.968;37.498;2023-10-09T01:27:17;97315.03;;;1.70;87.76
65546;BME280;52177;55.968;37.498;2023-10-09T01:27:48;97320.47;;;1.68;87.79
65546;BME280;52177;55.968;37.498;2023-10-09T01:28:18;97324.09;;;1.67;87.96
65546;BME280;52177;55.968;37.498;2023-10-09T01:28:49;97325.09;;;1.66;88.01
65546;BME280;52177;55.968;37.498;2023-10-09T01:29:21;97335.78;;;1.65;88.05
65546;BME280;52177;55.968;37.498;2023-10-09T01:29:52;97326.72;;;1.67;87.98
65546;BME280;52177;55.968;37.498;2023-10-09T01:30:22;97334.44;;;1.69;87.91
65546;BME280;52177;55.968;37.498;2023-10-09T01:30:53;97330.34;;;1.66;88.03
65546;BME280;52177;55.968;37.498;2023-10-09T01:31:26;97337.22;;;1.67;88.16
65546;BME280;52177;55.968;37.498;2023-10-09T01:31:57;97345.09;;;1.67;88.10
65546;BME280;52177;55.968;37.498;2023-10-09T01:32:33;97334.78;;;1.66;88.19
65546;BME280;52177;55.968;37.498;2023-10-09T01:33:04;97336.22;;;1.68;88.16
65546;BME280;52177;55.968;37.498;2023-10-09T01:33:42;97337.59;;;1.64;88.15
65546;BME280;52177;55.968;37.498;2023-10-09T01:34:13;97342.84;;;1.64;88.33
65546;BME280;52177;55.968;37.498;2023-10-09T01:34:44;97333.97;;;1.65;88.25
65546;BME280;52177;55.968;37.498;2023-10-09T01:35:18;97351.53;;;1.65;88.45
65546;BME280;52177;55.968;37.498;2023-10-09T01:35:51;97347.09;;;1.65;88.50
65546;BME280;52177;55.968;37.498;2023-10-09T01:36:25;97352.34;;;1.65;88.37
65546;BME280;52177;55.968;37.498;2023-10-09T01:37:01;97351.53;;;1.65;88.49
65546;BME280;52177;55.968;37.498;2023-10-09T01:37:35;97353.50;;;1.63;88.44
65546;BME280;52177;55.968;37.498;2023-10-09T01:38:07;97348.25;;;1.63;88.65
65546;BME280;52177;55.968;37.498;2023-10-09T01:38:45;97352.53;;;1.64;88.79
65546;BME280;52177;55.968;37.498;2023-10-09T01:39:18;97362.84;;;1.65;88.72
65546;BME280;52177;55.968;37.498;2023-10-09T01:39:58;97364.50;;;1.66;88.77
65546;BME280;52177;55.968;37.498;2023-10-09T01:40:29;97354.00;;;1.66;88.64
65546;BME280;52177;55.968;37.498;2023-10-09T01:41:11;97346.91;;;1.67;88.88
65546;BME280;52177;55.968;37.498;2023-10-09T01:41:45;97362.47;;;1.68;88.87
65546;BME280;52177;55.968;37.498;2023-10-09T01:42:18;97354.91;;;1.74;88.77
65546;BME280;52177;55.968;37.498;2023-10-09T01:43:00;97361.78;;;1.75;88.79
65546;BME280;52177;55.968;37.498;2023-10-09T01:43:33;97354.53;;;1.77;88.80
65546;BME280;52177;55.968;37.498;2023-10-09T01:44:04;97371.91;;;1.78;88.52
65546;BME280;52177;55.968;37.498;2023-10-09T01:44:40;97363.88;;;1.79;88.55
65546;BME280;52177;55.968;37.498;2023-10-09T01:45:14;97360.28;;;1.80;88.42
65546;BME280;52177;55.968;37.498;2023-10-09T01:45:50;97363.06;;;1.79;88.42
65546;BME280;52177;55.968;37.498;2023-10-09T01:46:22;97363.06;;;1.79;88.38
65546;BME280;52177;55.968;37.498;2023-10-09T01:46:53;97363.06;;;1.79;88.30
65546;BME280;52177;55.968;37.498;2023-10-09T01:47:27;97366.34;;;1.81;88.26
65546;BME280;52177;55.968;37.498;2023-10-09T01:48:01;97367.94;;;1.82;88.13
65546;BME280;52177;55.968;37.498;2023-10-09T01:48:34;97380.44;;;1.80;88.25
65546;BME280;52177;55.968;37.498;2023-10-09T01:49:09;97372.56;;;1.80;88.21
65546;BME280;52177;55.968;37.498;2023-10-09T01:49:47;97375.38;;;1.78;88.02
65546;BME280;52177;55.968;37.498;2023-10-09T01:50:23;97374.38;;;1.79;88.12
65546;BME280;52177;55.968;37.498;2023-10-09T01:51:01;97382.25;;;1.79;88.03
65546;BME280;52177;55.968;37.498;2023-10-09T01:51:35;97375.38;;;1.78;88.08
65546;BME280;52177;55.968;37.498;2023-10-09T01:52:07;97378.19;;;1.77;87.95
65546;BME280;52177;55.968;37.498;2023-10-09T01:52:39;97379.19;;;1.76;88.07
65546;BME280;52177;55.968;37.498;2023-10-09T01:53:09;97380.63;;;1.78;87.98
65546;BME280;52177;55.968;37.498;2023-10-09T01:53:40;97385.69;;;1.80;87.90
65546;BME280;52177;55.968;37.498;2023-10-09T01:54:11;97386.06;;;1.77;87.84
65546;BME280;52177;55.968;37.498;2023-10-09T01:54:57;97386.22;;;1.75;87.99
65546;BME280;52177;55.968;37.498;2023-10-09T01:55:39;97390.84;;;1.73;88.07
65546;BME280;52177;55.968;37.498;2023-10-09T01:56:11;97391.69;;;1.74;88.09
65546;BME280;52177;55.968;37.498;2023-10-09T01:56:47;97388.22;;;1.73;87.96
65546;BME280;52177;55.968;37.498;2023-10-09T01:57:20;97379.19;;;1.76;88.07
65546;BME280;52177;55.968;37.498;2023-10-09T01:57:54;97395.94;;;1.75;88.01
65546;BME280;52177;55.968;37.498;2023-10-09T01:58:25;97394.31;;;1.74;88.00
65546;BME280;52177;55.968;37.498;2023-10-09T01:58:57;97387.22;;;1.74;87.95
65546;BME280;52177;55.968;37.498;2023-10-09T01:59:35;97392.31;;;1.76;87.93
65546;BME280;52177;55.968;37.498;2023-10-09T02:00:08;97400.81;;;1.78;87.91
65546;BME280;52177;55.968;37.498;2023-10-09T02:00:39;97406.25;;;1.76;87.88
65546;BME280;52177;55.968;37.498;2023-10-09T02:01:13;97396.56;;;1.77;88.00
65546;BME280;52177;55.968;37.498;2023-10-09T02:01:45;97391.31;;;1.77;87.93
65546;BME280;52177;55.968;37.498;2023-10-09T02:02:21;97404.63;;;1.75;87.63
65546;BME280;52177;55.968;37.498;2023-10-09T02:02:56;97402.00;;;1.75;87.77
65546;BME280;52177;55.968;37.498;2023-10-09T02:03:26;97405.09;;;1.79;87.69
65546;BME280;52177;55.968;37.498;2023-10-09T02:03:59;97403.44;;;1.78;87.79
65546;BME280;52177;55.968;37.498;2023-10-09T02:04:36;97404.44;;;1.77;87.70
65546;BME280;52177;55.968;37.498;2023-10-09T02:05:07;97400.53;;;1.73;87.88
65546;BME280;52177;55.968;37.498;2023-10-09T02:05:42;97409.22;;;1.73;87.95
65546;BME280;52177;55.968;37.498;2023-10-09T02:06:12;97405.63;;;1.74;87.93
65546;BME280;52177;55.968;37.498;2023-10-09T02:07:03;97407.25;;;1.75;88.13
65546;BME280;52177;55.968;37.498;2023-10-09T02:07:37;97409.69;;;1.77;88.08
65546;BME280;52177;55.968;37.498;2023-10-09T02:08:11;97404.44;;;1.77;88.07
65546;BME280;52177;55.968;37.498;2023-10-09T02:08:43;97414.25;;;1.83;87.94
65546;BME280;52177;55.968;37.498;2023-10-09T02:09:19;97412.44;;;1.83;87.77
65546;BME280;52177;55.968;37.498;2023-10-09T02:09:54;97412.44;;;1.83;87.62
65546;BME280;52177;55.968;37.498;2023-10-09T02:10:25;97420.13;;;1.85;87.67
65546;BME280;52177;55.968;37.498;2023-10-09T02:10:58;97413.63;;;1.81;87.56
65546;BME280;52177;55.968;37.498;2023-10-09T02:11:28;97418.06;;;1.80;87.52
65546;BME280;52177;55.968;37.498;2023-10-09T02:12:15;97416.56;;;1.78;87.69
65546;BME280;52177;55.968;37.498;2023-10-09T02:12:46;97416.88;;;1.83;87.69
65546;BME280;52177;55.968;37.498;2023-10-09T02:13:17;97411.78;;;1.81;87.45
65546;BME280;52177;55.968;37.498;2023-10-09T02:13:47;97417.41;;;1.78;87.53
65546;BME280;52177;55.968;37.498;2023-10-09T02:14:23;97428.72;;;1.79;87.53
65546;BME280;52177;55.968;37.498;2023-10-09T02:14:54;97425.94;;;1.80;87.44
65546;BME280;52177;55.968;37.498;2023-10-09T02:15:26;97424.13;;;1.81;87.64
65546;BME280;52177;55.968;37.498;2023-10-09T02:16:15;97425.75;;;1.82;87.62
65546;BME280;52177;55.968;37.498;2023-10-09T02:16:47;97430.19;;;1.81;87.65
65546;BME280;52177;55.968;37.498;2023-10-09T02:17:33;97434.25;;;1.84;87.59
65546;BME280;52177;55.968;37.498;2023-10-09T02:18:04;97429.00;;;1.84;87.57
65546;BME280;52177;55.968;37.498;2023-10-09T02:18:46;97429.00;;;1.84;87.70
65546;BME280;52177;55.968;37.498;2023-10-09T02:19:23;97431.63;;;1.84;87.65
65546;BME280;52177;55.968;37.498;2023-10-09T02:20:00;97440.16;;;1.86;87.70
65546;BME280;52177;55.968;37.498;2023-10-09T02:20:37;97438.34;;;1.86;87.75
65546;BME280;52177;55.968;37.498;2023-10-09T02:21:08;97434.53;;;1.89;87.75
65546;BME280;52177;55.968;37.498;2023-10-09T02:21:38;97433.56;;;1.90;87.57
65546;BME280;52177;55.968;37.498;2023-10-09T02:22:12;97433.75;;;1.88;87.61
65546;BME280;52177;55.968;37.498;2023-10-09T02:22:42;97438.81;;;1.90;87.61
65546;BME280;52177;55.968;37.498;2023-10-09T02:23:13;97434.38;;;1.90;87.60
65546;BME280;52177;55.968;37.498;2023-10-09T02:23:43;97431.91;;;1.89;87.51
65546;BME280;52177;55.968;37.498;2023-10-09T02:24:19;97437.97;;;1.89;87.55
65546;BME280;52177;55.968;37.498;2023-10-09T02:25:19;97435.34;;;1.89;87.49
65546;BME280;52177;55.968;37.498;2023-10-09T02:25:58;97432.56;;;1.91;87.49
65546;BME280;52177;55.968;37.498;2023-10-09T02:26:31;97439.00;;;1.88;87.40
65546;BME280;52177;55.968;37.498;2023-10-09T02:27:09;97433.09;;;1.86;87.52
65546;BME280;52177;55.968;37.498;2023-10-09T02:27:41;97440.81;;;1.88;87.40
65546;BME280;52177;55.968;37.498;2023-10-09T02:28:23;97433.91;;;1.87;87.49
65546;BME280;52177;55.968;37.498;2023-10-09T02:28:55;97435.56;;;1.88;87.22
65546;BME280;52177;55.968;37.498;2023-10-09T02:29:29;97439.34;;;1.85;87.27
65546;BME280;52177;55.968;37.498;2023-10-09T02:30:05;97441.78;;;1.87;87.29
65546;BME280;52177;55.968;37.498;2023-10-09T02:30:45;97443.59;;;1.86;87.38
65546;BME280;52177;55.968;37.498;2023-10-09T02:31:17;97443.59;;;1.86;87.27
65546;BME280;52177;55.968;37.498;2023-10-09T02:31:52;97428.75;;;1.94;87.17
65546;BME280;52177;55.968;37.498;2023-10-09T02:32:24;97438.81;;;1.90;86.76
65546;BME280;52177;55.968;37.498;2023-10-09T02:32:56;97453.59;;;1.91;87.03
65546;BME280;52177;55.968;37.498;2023-10-09T02:33:39;97447.34;;;1.92;87.01
65546;BME280;52177;55.968;37.498;2023-10-09T02:34:10;97448.50;;;1.89;86.98
65546;BME280;52177;55.968;37.498;2023-10-09T02:34:41;97449.66;;;1.87;87.05
65546;BME280;52177;55.968;37.498;2023-10-09T02:35:16;97449.22;;;1.83;87.07
65546;BME280;52177;55.968;37.498;2023-10-09T02:35:51;97457.91;;;1.84;87.16
65546;BME280;52177;55.968;37.498;2023-10-09T02:36:22;97443.31;;;1.81;87.19
65546;BME280;52177;55.968;37.498;2023-10-09T02:36:52;97456.28;;;1.83;87.23
65546;BME280;52177;55.968;37.498;2023-10-09T02:37:34;97446.59;;;1.83;87.29
65546;BME280;52177;55.968;37.498;2023-10-09T02:38:08;97458.06;;;1.82;87.22
65546;BME280;52177;55.968;37.498;2023-10-09T02:38:40;97456.63;;;1.80;87.27
65546;BME280;52177;55.968;37.498;2023-10-09T02:39:12;97442.84;;;1.78;87.39
65546;BME280;52177;55.968;37.498;2023-10-09T02:39:53;97454.34;;;1.77;87.46
65546;BME280;52177;55.968;37.498;2023-10-09T02:40:27;97461.41;;;1.76;87.43
65546;BME280;52177;55.968;37.498;2023-10-09T02:41:02;97463.03;;;1.77;87.48
65546;BME280;52177;55.968;37.498;2023-10-09T02:41:32;97454.34;;;1.77;87.72
65546;BME280;52177;55.968;37.498;2023-10-09T02:42:04;97463.69;;;1.79;87.67
65546;BME280;52177;55.968;37.498;2023-10-09T02:42:38;97465.34;;;1.80;87.66
65546;BME280;52177;55.968;37.498;2023-10-09T02:43:12;97464.50;;;1.80;87.72
65546;BME280;52177;55.968;37.498;2023-10-09T02:43:48;97463.84;;;1.78;87.85
65546;BME280;52177;55.968;37.498;2023-10-09T02:44:21;97469.31;;;1.76;87.95
65546;BME280;52177;55.968;37.498;2023-10-09T02:44:55;97467.47;;;1.77;88.01
65546;BME280;52177;55.968;37.498;2023-10-09T02:45:29;97467.47;;;1.77;88.03
65546;BME280;52177;55.968;37.498;2023-10-09T02:46:05;97480.47;;;1.78;88.17
65546;BME280;52177;55.968;37.498;2023-10-09T02:46:44;97463.53;;;1.81;88.15
65546;BME280;52177;55.968;37.498;2023-10-09T02:47:15;97471.72;;;1.78;88.08
65546;BME280;52177;55.968;37.498;2023-10-09T02:47:59;97473.38;;;1.79;88.11
65546;BME280;52177;55.968;37.498;2023-10-09T02:48:30;97479.00;;;1.76;88.13
65546;BME280;52177;55.968;37.498;2023-10-09T02:49:03;97479.81;;;1.76;88.23
65546;BME280;52177;55.968;37.498;2023-10-09T02:49:36;97473.38;;;1.79;88.31
65546;BME280;52177;55.968;37.498;2023-10-09T02:50:08;97476.81;;;1.79;88.40
65546;BME280;52177;55.968;37.498;2023-10-09T02:50:50;97473.03;;;1.82;88.35
65546;BME280;52177;55.968;37.498;2023-10-09T02:51:25;97480.91;;;1.82;88.40
65546;BME280;52177;55.968;37.498;2023-10-09T02:51:55;97483.16;;;1.85;88.44
65546;BME280;52177;55.968;37.498;2023-10-09T02:52:26;97469.88;;;1.86;88.34
65546;BME280;52177;55.968;37.498;2023-10-09T02:53:02;97472.34;;;1.88;88.40
65546;BME280;52177;55.968;37.498;2023-10-09T02:53:39;97474.59;;;1.91;88.20
65546;BME280;52177;55.968;37.498;2023-10-09T02:54:09;97481.84;;;1.89;87.94
65546;BME280;52177;55.968;37.498;2023-10-09T02:54:48;97473.94;;;1.89;88.01
65546;BME280;52177;55.968;37.498;2023-10-09T02:55:22;97473.31;;;1.87;87.94
65546;BME280;52177;55.968;37.498;2023-10-09T02:55:55;97483.50;;;1.90;87.76
65546;BME280;52177;55.968;37.498;2023-10-09T02:56:42;97484.34;;;1.82;87.59
65546;BME280;52177;55.968;37.498;2023-10-09T02:57:13;97481.72;;;1.82;87.64
65546;BME280;52177;55.968;37.498;2023-10-09T02:57:54;97481.09;;;1.80;87.74
65546;BME280;52177;55.968;37.498;2023-10-09T02:58:41;97485.50;;;1.80;87.75
65546;BME280;52177;55.968;37.498;2023-10-09T02:59:13;97485.50;;;1.80;87.84
65546;BME280;52177;55.968;37.498;2023-10-09T02:59:44;97492.41;;;1.81;87.96
65546;BME280;52177;55.968;37.498;2023-10-09T03:00:15;97487.16;;;1.81;87.87
65546;BME280;52177;55.968;37.498;2023-10-09T03:00:59;97490.25;;;1.84;87.92
65546;BME280;52177;55.968;37.498;2023-10-09T03:01:30;97491.91;;;1.85;87.95
65546;BME280;52177;55.968;37.498;2023-10-09T03:02:00;97502.22;;;1.87;87.90
65546;BME280;52177;55.968;37.498;2023-10-09T03:02:31;97484.81;;;1.86;87.96
65546;BME280;52177;55.968;37.498;2023-10-09T03:03:03;97495.34;;;1.86;87.76
65546;BME280;52177;55.968;37.498;2023-10-09T03:03:36;97497.16;;;1.85;87.75
65546;BME280;52177;55.968;37.498;2023-10-09T03:04:08;97498.13;;;1.84;87.64
65546;BME280;52177;55.968;37.498;2023-10-09T03:04:44;97496.50;;;1.83;87.82
65546;BME280;52177;55.968;37.498;2023-10-09T03:05:16;97494.84;;;1.82;87.65
65546;BME280;52177;55.968;37.498;2023-10-09T03:05:46;97497.47;;;1.82;87.70
65546;BME280;52177;55.968;37.498;2023-10-09T03:06:20;97500.94;;;1.83;87.77
65546;BME280;52177;55.968;37.498;2023-10-09T03:06:55;97498.47;;;1.81;87.70